Harrisonville, Illinois
Current Conditions -  °F | °C
As of 12:53 AM on Friday 28 Nov 2014 (Local Time) from KCPS Reporting Station
Clear Clear  
Wind Chill: -10°   Ceiling: Unl
Heat Index: -4°   Visibility: 10mi
Dew Point: -7°   Wind: 10mph
Humidity: 81%   Direction: 130°SE
Pressure: 30.41"   Gusts: NA
Location:  38.2838°N, 90.3044°W
Report Text: KCPS 280653Z AUTO 13009KT 10SM CLR M04/M07 A3041 RMK AO2 SLP303 T10391067 TSNO
Loading
Personal Weather Stations






























Interactive Weather Map New forecast layout! Learn more

10-Day Weather Forecast

Advertisements
Track Severe Weather on mobile